sensor_id;sensor_type;location;lat;lon;timestamp;pressure;altitude;pressure_sealevel;temperature;humidity
75006;BME280;63553;51.814;4.600;2023-04-03T00:01:13;103162.63;;;14.09;54.33
75006;BME280;63553;51.814;4.600;2023-04-03T00:03:39;103168.81;;;14.06;54.84
75006;BME280;63553;51.814;4.600;2023-04-03T00:06:06;103170.19;;;14.08;54.55
75006;BME280;63553;51.814;4.600;2023-04-03T00:08:34;103165.47;;;14.04;54.87
75006;BME280;63553;51.814;4.600;2023-04-03T00:10:59;103173.28;;;14.07;54.29
75006;BME280;63553;51.814;4.600;2023-04-03T00:13:25;103167.13;;;14.05;54.51
75006;BME280;63553;51.814;4.600;2023-04-03T00:15:51;103167.44;;;14.03;54.08
75006;BME280;63553;51.814;4.600;2023-04-03T00:18:16;103172.19;;;14.03;54.63
75006;BME280;63553;51.814;4.600;2023-04-03T00:20:42;103176.09;;;14.02;54.58
75006;BME280;63553;51.814;4.600;2023-04-03T00:23:07;103175.56;;;14.00;54.24
75006;BME280;63553;51.814;4.600;2023-04-03T00:25:33;103180.88;;;14.01;54.90
75006;BME280;63553;51.814;4.600;2023-04-03T00:27:58;103170.81;;;14.00;54.73
75006;BME280;63553;51.814;4.600;2023-04-03T00:30:24;103183.94;;;14.00;54.59
75006;BME280;63553;51.814;4.600;2023-04-03T00:32:50;103179.47;;;13.99;54.42
75006;BME280;63553;51.814;4.600;2023-04-03T00:35:16;103190.66;;;13.99;54.04
75006;BME280;63553;51.814;4.600;2023-04-03T00:37:42;103192.06;;;13.96;54.08
75006;BME280;63553;51.814;4.600;2023-04-03T00:40:08;103190.16;;;13.91;53.62
75006;BME280;63553;51.814;4.600;2023-04-03T00:42:36;103184.88;;;13.85;53.60
75006;BME280;63553;51.814;4.600;2023-04-03T00:47:28;103180.72;;;13.77;54.14
75006;BME280;63553;51.814;4.600;2023-04-03T00:49:54;103184.06;;;13.79;54.29
75006;BME280;63553;51.814;4.600;2023-04-03T00:52:25;103189.38;;;13.76;54.14
75006;BME280;63553;51.814;4.600;2023-04-03T00:54:54;103185.19;;;13.73;54.46
75006;BME280;63553;51.814;4.600;2023-04-03T00:57:22;103185.78;;;13.70;54.04
75006;BME280;63553;51.814;4.600;2023-04-03T00:59:55;103186.63;;;13.71;54.09
75006;BME280;63553;51.814;4.600;2023-04-03T01:02:22;103183.28;;;13.69;54.43
75006;BME280;63553;51.814;4.600;2023-04-03T01:04:48;103184.66;;;13.66;53.76
75006;BME280;63553;51.814;4.600;2023-04-03T01:07:19;103180.22;;;13.65;54.17
75006;BME280;63553;51.814;4.600;2023-04-03T01:09:48;103186.91;;;13.64;54.28
75006;BME280;63553;51.814;4.600;2023-04-03T01:12:27;103187.50;;;13.61;54.19
75006;BME280;63553;51.814;4.600;2023-04-03T01:14:55;103188.59;;;13.60;54.42
75006;BME280;63553;51.814;4.600;2023-04-03T01:20:50;103200.06;;;13.64;54.02
75006;BME280;63553;51.814;4.600;2023-04-03T01:23:12;103196.72;;;13.62;54.41
75006;BME280;63553;51.814;4.600;2023-04-03T01:25:49;103206.53;;;13.59;54.08
75006;BME280;63553;51.814;4.600;2023-04-03T01:28:32;103199.81;;;13.55;53.67
75006;BME280;63553;51.814;4.600;2023-04-03T01:31:13;103202.59;;;13.55;53.92
75006;BME280;63553;51.814;4.600;2023-04-03T01:33:41;103208.75;;;13.52;54.10
75006;BME280;63553;51.814;4.600;2023-04-03T01:36:07;103205.13;;;13.52;53.95
75006;BME280;63553;51.814;4.600;2023-04-03T01:38:33;103197.03;;;13.50;53.97
75006;BME280;63553;51.814;4.600;2023-04-03T01:40:58;103196.19;;;13.50;54.19
75006;BME280;63553;51.814;4.600;2023-04-03T01:43:24;103195.66;;;13.48;54.12
75006;BME280;63553;51.814;4.600;2023-04-03T01:45:49;103195.94;;;13.46;54.14
75006;BME280;63553;51.814;4.600;2023-04-03T01:48:16;103202.34;;;13.47;54.04
75006;BME280;63553;51.814;4.600;2023-04-03T01:50:41;103198.44;;;13.43;54.20
75006;BME280;63553;51.814;4.600;2023-04-03T01:53:07;103204.31;;;13.46;54.12
75006;BME280;63553;51.814;4.600;2023-04-03T01:55:32;103202.63;;;13.45;54.08
75006;BME280;63553;51.814;4.600;2023-04-03T01:57:58;103217.75;;;13.44;54.06
75006;BME280;63553;51.814;4.600;2023-04-03T02:00:23;103209.94;;;13.41;54.23
75006;BME280;63553;51.814;4.600;2023-04-03T02:02:48;103205.72;;;13.44;54.10
75006;BME280;63553;51.814;4.600;2023-04-03T02:05:14;103203.50;;;13.41;54.17
75006;BME280;63553;51.814;4.600;2023-04-03T02:07:39;103207.97;;;13.42;53.68
75006;BME280;63553;51.814;4.600;2023-04-03T02:10:05;103211.88;;;13.41;53.81
75006;BME280;63553;51.814;4.600;2023-04-03T02:12:30;103211.03;;;13.40;54.19
75006;BME280;63553;51.814;4.600;2023-04-03T02:14:56;103210.50;;;13.38;53.55
75006;BME280;63553;51.814;4.600;2023-04-03T02:17:21;103216.34;;;13.36;53.76
75006;BME280;63553;51.814;4.600;2023-04-03T02:19:46;103212.44;;;13.38;53.94
75006;BME280;63553;51.814;4.600;2023-04-03T02:22:12;103214.41;;;13.37;53.34
75006;BME280;63553;51.814;4.600;2023-04-03T02:24:37;103217.75;;;13.34;53.83
75006;BME280;63553;51.814;4.600;2023-04-03T02:27:04;103216.09;;;13.33;53.47
75006;BME280;63553;51.814;4.600;2023-04-03T02:29:29;103213.84;;;13.35;54.23
75006;BME280;63553;51.814;4.600;2023-04-03T02:31:54;103222.25;;;13.35;54.23
75006;BME280;63553;51.814;4.600;2023-04-03T02:34:20;103217.19;;;13.37;54.13
75006;BME280;63553;51.814;4.600;2023-04-03T02:36:46;103223.06;;;13.41;53.99
75006;BME280;63553;51.814;4.600;2023-04-03T02:39:11;103227.81;;;13.40;53.91
75006;BME280;63553;51.814;4.600;2023-04-03T02:41:36;103224.47;;;13.38;54.11
75006;BME280;63553;51.814;4.600;2023-04-03T02:44:03;103225.56;;;13.37;53.39
75006;BME280;63553;51.814;4.600;2023-04-03T02:46:28;103231.19;;;13.32;53.77
75006;BME280;63553;51.814;4.600;2023-04-03T02:48:54;103232.03;;;13.32;54.15
75006;BME280;63553;51.814;4.600;2023-04-03T02:51:19;103223.66;;;13.32;54.42
75006;BME280;63553;51.814;4.600;2023-04-03T02:53:45;103229.78;;;13.34;54.07
75006;BME280;63553;51.814;4.600;2023-04-03T02:56:10;103221.94;;;13.36;54.11
75006;BME280;63553;51.814;4.600;2023-04-03T02:58:36;103220.81;;;13.38;53.78
75006;BME280;63553;51.814;4.600;2023-04-03T03:01:01;103220.00;;;13.42;54.71
75006;BME280;63553;51.814;4.600;2023-04-03T03:03:26;103221.09;;;13.46;54.67
75006;BME280;63553;51.814;4.600;2023-04-03T03:06:21;103223.91;;;13.41;53.99
75006;BME280;63553;51.814;4.600;2023-04-03T03:08:46;103226.41;;;13.43;54.34
75006;BME280;63553;51.814;4.600;2023-04-03T03:11:12;103230.88;;;13.44;53.96
75006;BME280;63553;51.814;4.600;2023-04-03T03:13:37;103228.91;;;13.44;54.19
75006;BME280;63553;51.814;4.600;2023-04-03T03:16:03;103230.31;;;13.42;53.71
75006;BME280;63553;51.814;4.600;2023-04-03T03:18:29;103225.84;;;13.41;54.12
75006;BME280;63553;51.814;4.600;2023-04-03T03:20:56;103230.31;;;13.42;54.38
75006;BME280;63553;51.814;4.600;2023-04-03T03:23:23;103233.41;;;13.40;53.70
75006;BME280;63553;51.814;4.600;2023-04-03T03:26:01;103228.94;;;13.39;54.11
75006;BME280;63553;51.814;4.600;2023-04-03T03:28:27;103237.31;;;13.39;53.70
75006;BME280;63553;51.814;4.600;2023-04-03T03:30:53;103234.53;;;13.34;53.87
75006;BME280;63553;51.814;4.600;2023-04-03T03:33:18;103234.53;;;13.34;54.04
75006;BME280;63553;51.814;4.600;2023-04-03T03:35:44;103239.03;;;13.30;53.54
75006;BME280;63553;51.814;4.600;2023-04-03T03:38:10;103232.59;;;13.29;54.04
75006;BME280;63553;51.814;4.600;2023-04-03T03:40:35;103232.84;;;13.28;54.18
75006;BME280;63553;51.814;4.600;2023-04-03T03:43:01;103242.91;;;13.29;53.80
75006;BME280;63553;51.814;4.600;2023-04-03T03:45:26;103253.25;;;13.28;53.68
75006;BME280;63553;51.814;4.600;2023-04-03T03:47:52;103251.56;;;13.27;53.52
75006;BME280;63553;51.814;4.600;2023-04-03T03:50:17;103248.78;;;13.22;53.27
75006;BME280;63553;51.814;4.600;2023-04-03T03:52:42;103248.50;;;13.19;53.44
75006;BME280;63553;51.814;4.600;2023-04-03T03:55:08;103258.03;;;13.18;53.76
75006;BME280;63553;51.814;4.600;2023-04-03T03:57:33;103249.06;;;13.16;53.93
75006;BME280;63553;51.814;4.600;2023-04-03T03:59:59;103253.56;;;13.17;54.33
75006;BME280;63553;51.814;4.600;2023-04-03T04:02:24;103242.69;;;13.15;54.08
75006;BME280;63553;51.814;4.600;2023-04-03T04:04:49;103250.22;;;13.15;53.69
75006;BME280;63553;51.814;4.600;2023-04-03T04:07:15;103250.47;;;13.13;53.86
75006;BME280;63553;51.814;4.600;2023-04-03T04:09:40;103250.75;;;13.22;56.07
75006;BME280;63553;51.814;4.600;2023-04-03T04:12:06;103249.34;;;13.34;59.11
75006;BME280;63553;51.814;4.600;2023-04-03T04:14:31;103257.44;;;13.31;57.42
75006;BME280;63553;51.814;4.600;2023-04-03T04:16:57;103261.94;;;13.27;57.12
75006;BME280;63553;51.814;4.600;2023-04-03T04:19:22;103259.69;;;13.19;56.45
75006;BME280;63553;51.814;4.600;2023-04-03T04:21:47;103260.53;;;13.14;56.32
75006;BME280;63553;51.814;4.600;2023-04-03T04:24:13;103251.03;;;13.05;56.31
75006;BME280;63553;51.814;4.600;2023-04-03T04:26:38;103254.94;;;12.99;56.26
75006;BME280;63553;51.814;4.600;2023-04-03T04:29:03;103249.91;;;12.91;56.69
75006;BME280;63553;51.814;4.600;2023-04-03T04:31:29;103259.13;;;12.87;56.36
75006;BME280;63553;51.814;4.600;2023-04-03T04:33:54;103255.22;;;12.82;56.55
75006;BME280;63553;51.814;4.600;2023-04-03T04:36:19;103258.56;;;12.79;56.61
75006;BME280;63553;51.814;4.600;2023-04-03T04:38:45;103257.16;;;12.77;56.34
75006;BME280;63553;51.814;4.600;2023-04-03T04:41:11;103265.81;;;12.75;56.43
75006;BME280;63553;51.814;4.600;2023-04-03T04:43:36;103269.72;;;12.74;56.48
75006;BME280;63553;51.814;4.600;2023-04-03T04:46:06;103270.84;;;12.73;57.11
75006;BME280;63553;51.814;4.600;2023-04-03T04:48:31;103271.97;;;12.72;57.16
75006;BME280;63553;51.814;4.600;2023-04-03T04:50:57;103280.88;;;12.74;57.00
75006;BME280;63553;51.814;4.600;2023-04-03T04:53:22;103282.56;;;12.75;57.48
75006;BME280;63553;51.814;4.600;2023-04-03T04:55:47;103283.66;;;12.74;57.06
75006;BME280;63553;51.814;4.600;2023-04-03T04:58:13;103280.03;;;12.74;57.40
75006;BME280;63553;51.814;4.600;2023-04-03T05:00:38;103282.84;;;12.74;56.84
75006;BME280;63553;51.814;4.600;2023-04-03T05:03:04;103286.75;;;12.73;57.51
75006;BME280;63553;51.814;4.600;2023-04-03T05:05:29;103285.34;;;12.75;57.56
75006;BME280;63553;51.814;4.600;2023-04-03T05:07:55;103285.06;;;12.77;58.04
75006;BME280;63553;51.814;4.600;2023-04-03T05:10:20;103286.50;;;12.79;58.28
75006;BME280;63553;51.814;4.600;2023-04-03T05:12:46;103303.25;;;12.85;58.23
75006;BME280;63553;51.814;4.600;2023-04-03T05:15:11;103294.56;;;12.86;58.21
75006;BME280;63553;51.814;4.600;2023-04-03T05:17:37;103288.72;;;12.93;58.52
75006;BME280;63553;51.814;4.600;2023-04-03T05:20:03;103288.16;;;12.96;58.49
75006;BME280;63553;51.814;4.600;2023-04-03T05:22:29;103285.09;;;12.97;58.60
75006;BME280;63553;51.814;4.600;2023-04-03T05:24:55;103287.34;;;13.00;58.57
75006;BME280;63553;51.814;4.600;2023-04-03T05:27:20;103289.00;;;13.01;58.36
75006;BME280;63553;51.814;4.600;2023-04-03T05:29:45;103276.97;;;13.01;58.58
75006;BME280;63553;51.814;4.600;2023-04-03T05:32:11;103281.47;;;13.02;58.24
75006;BME280;63553;51.814;4.600;2023-04-03T05:34:37;103289.28;;;13.00;58.14
75006;BME280;63553;51.814;4.600;2023-04-03T05:37:02;103295.44;;;12.97;57.33
75006;BME280;63553;51.814;4.600;2023-04-03T05:39:29;103290.97;;;12.86;57.78
75006;BME280;63553;51.814;4.600;2023-04-03T05:41:56;103299.59;;;12.89;57.14
75006;BME280;63553;51.814;4.600;2023-04-03T05:44:22;103303.25;;;12.85;57.22
75006;BME280;63553;51.814;4.600;2023-04-03T05:46:47;103305.75;;;12.81;56.94
75006;BME280;63553;51.814;4.600;2023-04-03T05:49:12;103298.75;;;12.78;57.28
75006;BME280;63553;51.814;4.600;2023-04-03T05:51:38;103304.06;;;12.75;56.25
75006;BME280;63553;51.814;4.600;2023-04-03T05:54:18;103309.94;;;12.73;56.25
75006;BME280;63553;51.814;4.600;2023-04-03T05:56:44;103313.00;;;12.87;58.37
75006;BME280;63553;51.814;4.600;2023-04-03T05:59:10;103314.69;;;12.98;56.84
75006;BME280;63553;51.814;4.600;2023-04-03T06:01:36;103299.59;;;13.04;57.66
75006;BME280;63553;51.814;4.600;2023-04-03T06:04:02;103296.25;;;13.02;56.42
75006;BME280;63553;51.814;4.600;2023-04-03T06:09:15;103314.19;;;13.26;55.18
75006;BME280;63553;51.814;4.600;2023-04-03T06:11:41;103312.44;;;13.66;52.94
75006;BME280;63553;51.814;4.600;2023-04-03T06:14:07;103317.91;;;14.06;52.57
75006;BME280;63553;51.814;4.600;2023-04-03T06:16:33;103312.72;;;14.49;51.60
75006;BME280;63553;51.814;4.600;2023-04-03T06:18:58;103319.41;;;14.91;50.84
75006;BME280;63553;51.814;4.600;2023-04-03T06:21:24;103314.03;;;15.34;48.70
75006;BME280;63553;51.814;4.600;2023-04-03T06:23:49;103313.63;;;15.74;48.23
75006;BME280;63553;51.814;4.600;2023-04-03T06:26:16;103323.03;;;16.12;46.93
75006;BME280;63553;51.814;4.600;2023-04-03T06:28:41;103328.41;;;16.51;64.63
75006;BME280;63553;51.814;4.600;2023-04-03T06:31:07;103322.41;;;17.13;62.77
75006;BME280;63553;51.814;4.600;2023-04-03T06:33:34;103333.84;;;17.36;61.78
75006;BME280;63553;51.814;4.600;2023-04-03T06:35:59;103318.69;;;17.96;59.49
75006;BME280;63553;51.814;4.600;2023-04-03T06:38:25;103320.38;;;14.77;46.61
75006;BME280;63553;51.814;4.600;2023-04-03T06:40:51;103335.59;;;12.70;48.13
75006;BME280;63553;51.814;4.600;2023-04-03T06:43:17;103340.50;;;12.28;51.05
75006;BME280;63553;51.814;4.600;2023-04-03T06:45:42;103335.19;;;11.06;47.44
75006;BME280;63553;51.814;4.600;2023-04-03T06:48:07;103330.94;;;11.25;51.51
75006;BME280;63553;51.814;4.600;2023-04-03T06:50:32;103340.25;;;10.82;50.04
75006;BME280;63553;51.814;4.600;2023-04-03T06:52:58;103336.19;;;11.22;49.39
75006;BME280;63553;51.814;4.600;2023-04-03T06:55:23;103344.97;;;11.08;49.45
75006;BME280;63553;51.814;4.600;2023-04-03T06:57:49;103349.47;;;8.91;51.62
75006;BME280;63553;51.814;4.600;2023-04-03T07:00:15;103357.63;;;8.81;53.88
75006;BME280;63553;51.814;4.600;2023-04-03T07:02:41;103352.84;;;7.62;55.93
75006;BME280;63553;51.814;4.600;2023-04-03T07:05:07;103360.63;;;8.79;54.16
75006;BME280;63553;51.814;4.600;2023-04-03T07:07:32;103355.25;;;10.11;51.42
75006;BME280;63553;51.814;4.600;2023-04-03T07:09:59;103369.28;;;9.99;49.32
75006;BME280;63553;51.814;4.600;2023-04-03T07:12:25;103356.19;;;9.78;49.06
75006;BME280;63553;51.814;4.600;2023-04-03T07:14:50;103357.88;;;9.79;50.23
75006;BME280;63553;51.814;4.600;2023-04-03T07:17:15;103366.75;;;9.98;50.56
75006;BME280;63553;51.814;4.600;2023-04-03T07:19:41;103368.81;;;10.99;49.17
75006;BME280;63553;51.814;4.600;2023-04-03T07:22:06;103367.72;;;12.06;46.84
75006;BME280;63553;51.814;4.600;2023-04-03T07:24:32;103370.88;;;13.17;42.98
75006;BME280;63553;51.814;4.600;2023-04-03T07:26:58;103364.59;;;12.59;42.75
75006;BME280;63553;51.814;4.600;2023-04-03T07:29:23;103370.59;;;11.74;46.70
75006;BME280;63553;51.814;4.600;2023-04-03T07:31:49;103361.94;;;13.50;42.52
75006;BME280;63553;51.814;4.600;2023-04-03T07:34:14;103359.09;;;13.85;42.64
75006;BME280;63553;51.814;4.600;2023-04-03T07:36:40;103377.72;;;12.59;42.28
75006;BME280;63553;51.814;4.600;2023-04-03T07:39:06;103367.31;;;12.39;42.60
75006;BME280;63553;51.814;4.600;2023-04-03T07:41:33;103374.84;;;11.82;44.68
75006;BME280;63553;51.814;4.600;2023-04-03T07:43:58;103372.00;;;13.26;42.54
75006;BME280;63553;51.814;4.600;2023-04-03T07:46:24;103366.44;;;14.51;40.07
75006;BME280;63553;51.814;4.600;2023-04-03T07:48:49;103361.59;;;14.66;39.18
75006;BME280;63553;51.814;4.600;2023-04-03T07:51:14;103366.69;;;13.50;41.54
75006;BME280;63553;51.814;4.600;2023-04-03T07:53:40;103361.25;;;14.73;39.35
75006;BME280;63553;51.814;4.600;2023-04-03T07:56:06;103367.66;;;15.56;37.91
75006;BME280;63553;51.814;4.600;2023-04-03T07:58:32;103369.34;;;14.15;39.18
75006;BME280;63553;51.814;4.600;2023-04-03T08:00:58;103368.91;;;14.62;38.72
75006;BME280;63553;51.814;4.600;2023-04-03T08:03:23;103381.22;;;13.77;39.32
75006;BME280;63553;51.814;4.600;2023-04-03T08:05:49;103382.13;;;12.45;42.17
75006;BME280;63553;51.814;4.600;2023-04-03T08:08:18;103374.13;;;14.05;39.73
75006;BME280;63553;51.814;4.600;2023-04-03T08:10:48;103380.88;;;15.55;37.86
75006;BME280;63553;51.814;4.600;2023-04-03T08:13:13;103384.13;;;14.31;39.29
75006;BME280;63553;51.814;4.600;2023-04-03T08:15:39;103383.31;;;14.35;38.89
75006;BME280;63553;51.814;4.600;2023-04-03T08:18:04;103404.41;;;13.32;40.55
75006;BME280;63553;51.814;4.600;2023-04-03T08:20:30;103412.50;;;13.08;40.13
75006;BME280;63553;51.814;4.600;2023-04-03T08:22:55;103398.28;;;14.65;38.88
75006;BME280;63553;51.814;4.600;2023-04-03T08:25:21;103399.22;;;14.99;36.91
75006;BME280;63553;51.814;4.600;2023-04-03T08:27:46;103407.22;;;11.24;42.96
75006;BME280;63553;51.814;4.600;2023-04-03T08:30:12;103408.59;;;13.09;41.92
75006;BME280;63553;51.814;4.600;2023-04-03T08:32:37;103406.78;;;12.73;40.68
75006;BME280;63553;51.814;4.600;2023-04-03T08:35:04;103405.25;;;13.22;40.01
75006;BME280;63553;51.814;4.600;2023-04-03T08:37:29;103399.72;;;14.57;37.06
75006;BME280;63553;51.814;4.600;2023-04-03T08:39:55;103390.16;;;14.68;36.12
75006;BME280;63553;51.814;4.600;2023-04-03T08:42:32;103393.97;;;15.94;35.52
75006;BME280;63553;51.814;4.600;2023-04-03T08:47:43;103392.78;;;16.24;34.96
75006;BME280;63553;51.814;4.600;2023-04-03T08:50:14;103401.75;;;16.26;34.49
75006;BME280;63553;51.814;4.600;2023-04-03T08:52:44;103401.66;;;15.11;34.44
75006;BME280;63553;51.814;4.600;2023-04-03T08:55:21;103392.25;;;14.91;35.88
75006;BME280;63553;51.814;4.600;2023-04-03T08:57:50;103404.47;;;14.62;35.93
75006;BME280;63553;51.814;4.600;2023-04-03T09:00:22;103402.19;;;14.69;36.12
75006;BME280;63553;51.814;4.600;2023-04-03T09:02:53;103391.81;;;13.85;37.28
75006;BME280;63553;51.814;4.600;2023-04-03T09:05:26;103391.41;;;14.96;35.59
75006;BME280;63553;51.814;4.600;2023-04-03T09:10:45;103390.81;;;16.48;32.70
75006;BME280;63553;51.814;4.600;2023-04-03T09:13:24;103400.38;;;16.47;32.11
75006;BME280;63553;51.814;4.600;2023-04-03T09:15:53;103393.63;;;16.48;32.11
75006;BME280;63553;51.814;4.600;2023-04-03T09:18:28;103388.91;;;17.04;32.15
75006;BME280;63553;51.814;4.600;2023-04-03T09:24:13;103402.72;;;13.91;35.59
75006;BME280;63553;51.814;4.600;2023-04-03T09:26:52;103398.81;;;15.54;32.87
75006;BME280;63553;51.814;4.600;2023-04-03T09:29:22;103410.25;;;13.10;35.37
75006;BME280;63553;51.814;4.600;2023-04-03T09:31:52;103403.00;;;13.75;33.42
75006;BME280;63553;51.814;4.600;2023-04-03T09:34:27;103382.06;;;13.62;33.76
75006;BME280;63553;51.814;4.600;2023-04-03T09:37:00;103386.56;;;13.33;32.65
75006;BME280;63553;51.814;4.600;2023-04-03T09:39:32;103375.38;;;14.58;31.31
75006;BME280;63553;51.814;4.600;2023-04-03T09:42:05;103371.09;;;14.70;32.12
75006;BME280;63553;51.814;4.600;2023-04-03T09:44:36;103370.63;;;16.22;30.36
75006;BME280;63553;51.814;4.600;2023-04-03T09:47:28;103377.63;;;14.99;30.37
75006;BME280;63553;51.814;4.600;2023-04-03T09:52:38;103374.59;;;14.42;29.89
75006;BME280;63553;51.814;4.600;2023-04-03T09:55:27;103378.25;;;14.42;31.74
75006;BME280;63553;51.814;4.600;2023-04-03T09:58:05;103369.44;;;14.69;30.85
75006;BME280;63553;51.814;4.600;2023-04-03T10:00:54;103369.75;;;13.58;30.89
75006;BME280;63553;51.814;4.600;2023-04-03T10:03:34;103361.31;;;13.93;28.76
75006;BME280;63553;51.814;4.600;2023-04-03T10:06:03;103370.34;;;13.30;28.61
75006;BME280;63553;51.814;4.600;2023-04-03T10:08:31;103353.28;;;13.36;28.21
75006;BME280;63553;51.814;4.600;2023-04-03T10:11:07;103344.25;;;13.95;27.43
75006;BME280;63553;51.814;4.600;2023-04-03T10:13:35;103355.50;;;13.19;26.46
75006;BME280;63553;51.814;4.600;2023-04-03T10:16:07;103361.91;;;13.75;24.93
75006;BME280;63553;51.814;4.600;2023-04-03T10:18:51;103357.09;;;12.75;26.48
75006;BME280;63553;51.814;4.600;2023-04-03T10:21:43;103352.13;;;12.97;25.86
75006;BME280;63553;51.814;4.600;2023-04-03T10:24:14;103364.16;;;11.74;26.01
75006;BME280;63553;51.814;4.600;2023-04-03T10:26:49;103355.03;;;11.46;28.29
75006;BME280;63553;51.814;4.600;2023-04-03T10:29:38;103349.03;;;12.06;27.26
75006;BME280;63553;51.814;4.600;2023-04-03T10:34:45;103344.94;;;12.24;28.12
75006;BME280;63553;51.814;4.600;2023-04-03T10:37:26;103332.22;;;11.91;28.00
75006;BME280;63553;51.814;4.600;2023-04-03T10:40:19;103334.06;;;12.33;27.99
75006;BME280;63553;51.814;4.600;2023-04-03T10:43:08;103331.84;;;12.30;27.79
75006;BME280;63553;51.814;4.600;2023-04-03T10:48:24;103323.72;;;10.97;28.07
75006;BME280;63553;51.814;4.600;2023-04-03T10:56:17;103338.66;;;10.59;26.93
75006;BME280;63553;51.814;4.600;2023-04-03T10:58:48;103332.47;;;10.57;27.64
75006;BME280;63553;51.814;4.600;2023-04-03T11:01:22;103331.25;;;9.83;27.46
75006;BME280;63553;51.814;4.600;2023-04-03T11:04:00;103326.28;;;9.85;27.85
75006;BME280;63553;51.814;4.600;2023-04-03T11:06:34;103332.88;;;9.79;27.84
75006;BME280;63553;51.814;4.600;2023-04-03T11:09:05;103321.06;;;9.34;29.77
75006;BME280;63553;51.814;4.600;2023-04-03T11:11:36;103346.28;;;9.32;28.95
75006;BME280;63553;51.814;4.600;2023-04-03T11:14:11;103326.75;;;9.61;27.25
75006;BME280;63553;51.814;4.600;2023-04-03T11:16:45;103333.28;;;9.49;27.13
75006;BME280;63553;51.814;4.600;2023-04-03T11:19:21;103328.72;;;9.27;27.94
75006;BME280;63553;51.814;4.600;2023-04-03T11:24:29;103326.44;;;9.24;28.41
75006;BME280;63553;51.814;4.600;2023-04-03T11:26:59;103325.78;;;9.17;28.77
75006;BME280;63553;51.814;4.600;2023-04-03T11:29:36;103306.63;;;9.32;30.56
75006;BME280;63553;51.814;4.600;2023-04-03T11:32:27;103315.63;;;9.22;30.73
75006;BME280;63553;51.814;4.600;2023-04-03T11:35:00;103309.72;;;9.19;30.42
75006;BME280;63553;51.814;4.600;2023-04-03T11:37:35;103313.34;;;9.19;30.06
75006;BME280;63553;51.814;4.600;2023-04-03T11:40:45;103319.41;;;9.16;30.69
75006;BME280;63553;51.814;4.600;2023-04-03T11:42:54;103306.00;;;9.30;30.60
75006;BME280;63553;51.814;4.600;2023-04-03T11:45:33;103296.63;;;9.14;30.51
75006;BME280;63553;51.814;4.600;2023-04-03T11:50:54;103290.19;;;9.30;30.82
75006;BME280;63553;51.814;4.600;2023-04-03T11:53:32;103286.94;;;9.00;30.29
75006;BME280;63553;51.814;4.600;2023-04-03T11:56:01;103283.72;;;9.25;29.71
75006;BME280;63553;51.814;4.600;2023-04-03T12:01:04;103279.94;;;9.31;28.27
75006;BME280;63553;51.814;4.600;2023-04-03T12:26:43;103267.00;;;9.20;27.47
75006;BME280;63553;51.814;4.600;2023-04-03T12:31:55;103256.56;;;9.10;29.32
75006;BME280;63553;51.814;4.600;2023-04-03T12:45:16;103245.78;;;9.30;28.29
75006;BME280;63553;51.814;4.600;2023-04-03T12:47:44;103250.59;;;9.35;27.90
75006;BME280;63553;51.814;4.600;2023-04-03T12:50:31;103242.88;;;9.20;28.18
75006;BME280;63553;51.814;4.600;2023-04-03T12:53:06;103251.78;;;9.22;29.44
75006;BME280;63553;51.814;4.600;2023-04-03T12:55:32;103221.75;;;9.19;30.72
75006;BME280;63553;51.814;4.600;2023-04-03T12:58:16;103224.75;;;9.34;30.61
75006;BME280;63553;51.814;4.600;2023-04-03T13:00:46;103232.28;;;9.17;29.63
75006;BME280;63553;51.814;4.600;2023-04-03T13:03:23;103232.00;;;9.19;28.81
75006;BME280;63553;51.814;4.600;2023-04-03T13:05:53;103235.59;;;9.36;30.26
75006;BME280;63553;51.814;4.600;2023-04-03T13:08:20;103214.94;;;9.48;30.36
75006;BME280;63553;51.814;4.600;2023-04-03T13:10:53;103217.66;;;9.65;31.17
75006;BME280;63553;51.814;4.600;2023-04-03T13:13:20;103229.63;;;9.27;30.70
75006;BME280;63553;51.814;4.600;2023-04-03T13:15:47;103223.00;;;9.28;33.01
75006;BME280;63553;51.814;4.600;2023-04-03T13:20:50;103198.63;;;9.14;31.85
75006;BME280;63553;51.814;4.600;2023-04-03T13:23:17;103210.59;;;9.36;32.75
75006;BME280;63553;51.814;4.600;2023-04-03T13:25:45;103211.03;;;9.28;32.43
75006;BME280;63553;51.814;4.600;2023-04-03T13:28:15;103205.44;;;9.44;33.32
75006;BME280;63553;51.814;4.600;2023-04-03T13:30:59;103217.72;;;9.48;33.66
75006;BME280;63553;51.814;4.600;2023-04-03T13:33:29;103214.47;;;9.57;33.26
75006;BME280;63553;51.814;4.600;2023-04-03T13:36:05;103212.16;;;9.48;33.03
75006;BME280;63553;51.814;4.600;2023-04-03T13:38:33;103207.78;;;9.53;32.55
75006;BME280;63553;51.814;4.600;2023-04-03T13:43:50;103201.78;;;9.61;33.25
75006;BME280;63553;51.814;4.600;2023-04-03T13:48:46;103208.41;;;9.60;34.61
75006;BME280;63553;51.814;4.600;2023-04-03T13:53:50;103209.72;;;9.74;34.51
75006;BME280;63553;51.814;4.600;2023-04-03T13:56:32;103205.06;;;9.58;33.47
75006;BME280;63553;51.814;4.600;2023-04-03T14:01:53;103207.91;;;9.63;33.38
75006;BME280;63553;51.814;4.600;2023-04-03T14:04:24;103190.72;;;9.66;33.68
75006;BME280;63553;51.814;4.600;2023-04-03T14:06:51;103193.44;;;9.82;34.36
75006;BME280;63553;51.814;4.600;2023-04-03T14:09:17;103189.69;;;9.72;34.59
75006;BME280;63553;51.814;4.600;2023-04-03T14:11:43;103181.94;;;9.74;34.32
75006;BME280;63553;51.814;4.600;2023-04-03T14:14:18;103175.97;;;9.87;34.28
75006;BME280;63553;51.814;4.600;2023-04-03T14:16:46;103177.47;;;9.73;34.18
75006;BME280;63553;51.814;4.600;2023-04-03T14:19:28;103178.91;;;9.75;34.39
75006;BME280;63553;51.814;4.600;2023-04-03T14:21:54;103179.03;;;9.64;32.82
75006;BME280;63553;51.814;4.600;2023-04-03T14:24:21;103176.91;;;9.71;31.67
75006;BME280;63553;51.814;4.600;2023-04-03T14:26:48;103168.13;;;9.79;32.13
75006;BME280;63553;51.814;4.600;2023-04-03T14:29:15;103165.28;;;9.52;32.25